createdAt,value
2023-04-26T00:00:50.803Z,97921.56
2023-04-26T00:03:18.001Z,97924.94
2023-04-26T00:05:45.080Z,97908.88
2023-04-26T00:08:11.983Z,97935.50
2023-04-26T00:10:38.838Z,97914.03
2023-04-26T00:13:05.859Z,97942.16
2023-04-26T00:15:32.837Z,97928.31
2023-04-26T00:17:59.808Z,97912.13
2023-04-26T00:20:26.723Z,97946.25
2023-04-26T00:22:53.671Z,97924.63
2023-04-26T00:25:20.563Z,97905.97
2023-04-26T00:27:47.510Z,97915.09
2023-04-26T00:30:14.961Z,97919.03
2023-04-26T00:33:00.859Z,97926.28
2023-04-26T00:35:46.362Z,97911.25
2023-04-26T00:38:13.346Z,97932.38
2023-04-26T00:40:40.263Z,97901.19
2023-04-26T00:43:25.868Z,97913.41
2023-04-26T00:46:11.687Z,97912.97
2023-04-26T00:48:38.829Z,97903.22
2023-04-26T00:51:06.440Z,97911.91
2023-04-26T00:53:34.220Z,97909.25
2023-04-26T00:56:21.304Z,97900.72
2023-04-26T00:58:48.307Z,97894.91
2023-04-26T01:01:33.745Z,97924.97
2023-04-26T01:04:03.078Z,97897.50
2023-04-26T01:06:40.632Z,97916.63
2023-04-26T01:09:08.190Z,97899.19
2023-04-26T01:11:36.002Z,97894.66
2023-04-26T01:14:05.256Z,97928.25
2023-04-26T01:16:33.489Z,97911.44
2023-04-26T01:19:08.584Z,97896.56
2023-04-26T01:21:35.591Z,97877.75
2023-04-26T01:24:20.893Z,97892.88
2023-04-26T01:26:48.050Z,97900.22
2023-04-26T01:29:15.866Z,97905.59
2023-04-26T01:31:43.550Z,97908.28
2023-04-26T01:34:10.712Z,97915.44
2023-04-26T01:36:56.352Z,97914.56
2023-04-26T01:39:23.298Z,97903.41
2023-04-26T01:42:08.882Z,97884.66
2023-04-26T01:44:35.938Z,97906.44
2023-04-26T01:47:02.855Z,97897.25
2023-04-26T01:49:29.899Z,97897.50
2023-04-26T01:51:56.776Z,97913.41
2023-04-26T01:54:24.537Z,97904.25
2023-04-26T01:56:53.237Z,97883.59
2023-04-26T01:59:20.659Z,97893.06
2023-04-26T02:01:47.626Z,97890.38
2023-04-26T02:04:14.795Z,97877.22
2023-04-26T02:06:41.720Z,97898.00
2023-04-26T02:09:08.654Z,97902.78
2023-04-26T02:11:39.918Z,97902.84
2023-04-26T02:14:07.057Z,97856.34
2023-04-26T02:16:34.124Z,97903.69
2023-04-26T02:19:01.199Z,97904.88
2023-04-26T02:21:29.752Z,97890.97
2023-04-26T02:23:57.120Z,97883.28
2023-04-26T02:26:23.971Z,97887.63
2023-04-26T02:28:51.080Z,97882.34
2023-04-26T02:31:18.170Z,97878.22
2023-04-26T02:33:45.194Z,97881.50
2023-04-26T02:36:12.722Z,97896.53
2023-04-26T02:38:39.708Z,97886.25
2023-04-26T02:41:06.757Z,97893.91
2023-04-26T02:43:33.806Z,97917.34
2023-04-26T02:46:00.743Z,97886.63
2023-04-26T02:48:27.730Z,97892.34
2023-04-26T02:50:54.572Z,97917.34
2023-04-26T02:53:21.569Z,97889.41
2023-04-26T02:55:48.426Z,97872.59
2023-04-26T02:58:15.327Z,97866.41
2023-04-26T03:00:48.609Z,97873.59
2023-04-26T03:03:16.113Z,97878.03
2023-04-26T03:05:45.108Z,97909.59
2023-04-26T03:08:12.713Z,97886.72
2023-04-26T03:10:39.624Z,97887.59
2023-04-26T03:13:06.853Z,97912.72
2023-04-26T03:15:33.818Z,97888.38
2023-04-26T03:18:00.859Z,97904.91
2023-04-26T03:20:27.912Z,97903.47
2023-04-26T03:22:55.402Z,97875.56
2023-04-26T03:25:22.318Z,97902.34
2023-04-26T03:27:49.305Z,97921.44
2023-04-26T03:30:16.442Z,97904.25
2023-04-26T03:32:45.024Z,97888.72
2023-04-26T03:35:12.014Z,97910.91
2023-04-26T03:37:39.193Z,97895.66
2023-04-26T03:40:08.643Z,97912.59
2023-04-26T03:42:36.803Z,97909.28
2023-04-26T03:45:04.853Z,97911.19
2023-04-26T03:47:31.974Z,97934.53
2023-04-26T03:49:59.057Z,97908.63
2023-04-26T03:52:26.238Z,97937.16
2023-04-26T03:54:53.530Z,97914.09
2023-04-26T03:57:20.538Z,97930.00
2023-04-26T03:59:47.471Z,97937.31
2023-04-26T04:02:14.461Z,97926.13
2023-04-26T04:04:41.708Z,97928.03
2023-04-26T04:07:09.114Z,97942.34
2023-04-26T04:09:36.206Z,97948.09
2023-04-26T04:12:03.878Z,97945.34
2023-04-26T04:14:32.122Z,97949.22
2023-04-26T04:16:59.084Z,97931.47
2023-04-26T04:19:27.491Z,97935.91
2023-04-26T04:21:55.335Z,97972.78
2023-04-26T04:24:22.493Z,97947.56
2023-04-26T04:26:49.480Z,97929.06
2023-04-26T04:29:16.366Z,97931.34
2023-04-26T04:31:43.841Z,97950.34
2023-04-26T04:34:10.876Z,97945.09
2023-04-26T04:36:40.825Z,97935.28
2023-04-26T04:39:07.949Z,97941.28
2023-04-26T04:41:34.873Z,97940.50
2023-04-26T04:44:01.926Z,97951.84
2023-04-26T04:46:29.200Z,97949.09
2023-04-26T04:48:56.122Z,97956.03
2023-04-26T04:51:23.498Z,97958.59
2023-04-26T04:53:50.710Z,97945.97
2023-04-26T04:56:17.687Z,97964.25
2023-04-26T04:58:44.697Z,97958.91
2023-04-26T05:01:11.693Z,97969.09
2023-04-26T05:03:49.778Z,97962.81
2023-04-26T05:06:16.843Z,97970.44
2023-04-26T05:08:43.732Z,97957.66
2023-04-26T05:11:10.814Z,97985.31
2023-04-26T05:13:37.906Z,97974.19
2023-04-26T05:16:06.154Z,97957.25
2023-04-26T05:18:33.133Z,97953.91
2023-04-26T05:21:00.158Z,97972.75
2023-04-26T05:23:27.255Z,97971.09
2023-04-26T05:25:54.707Z,97998.53
2023-04-26T05:28:50.726Z,97980.63
2023-04-26T05:31:23.805Z,97970.09
2023-04-26T05:34:13.940Z,97977.34
2023-04-26T05:36:41.175Z,97976.78
2023-04-26T05:39:08.079Z,97988.38
2023-04-26T05:41:35.010Z,97989.88
2023-04-26T05:44:02.124Z,97994.59
2023-04-26T05:46:29.465Z,97970.50
2023-04-26T05:48:56.607Z,97967.59
2023-04-26T05:51:24.720Z,97986.22
2023-04-26T05:53:51.870Z,97978.78
2023-04-26T05:56:19.182Z,97970.13
2023-04-26T05:58:46.249Z,97989.13
2023-04-26T06:01:13.386Z,97986.94
2023-04-26T06:03:42.100Z,97999.00
2023-04-26T06:06:09.322Z,98009.81
2023-04-26T06:08:38.967Z,98009.13
2023-04-26T06:11:06.156Z,97975.88
2023-04-26T06:13:33.231Z,98000.78
2023-04-26T06:16:00.474Z,98026.53
2023-04-26T06:18:27.407Z,98002.88
2023-04-26T06:20:56.013Z,98023.09
2023-04-26T06:23:33.114Z,97985.81
2023-04-26T06:26:02.836Z,98009.38
2023-04-26T06:28:38.287Z,97998.69
2023-04-26T06:31:08.546Z,98015.25
2023-04-26T06:33:36.082Z,98003.06
2023-04-26T06:36:02.998Z,98016.06
2023-04-26T06:38:30.035Z,98021.00
2023-04-26T06:40:59.747Z,98032.59
2023-04-26T06:43:26.966Z,98038.50
2023-04-26T06:46:03.134Z,98045.56
2023-04-26T06:48:30.388Z,98052.19
2023-04-26T06:50:57.260Z,98059.47
2023-04-26T06:53:24.196Z,98024.25
2023-04-26T06:55:51.057Z,98060.75
2023-04-26T06:58:17.937Z,98070.31
2023-04-26T07:00:44.883Z,98086.91
2023-04-26T07:03:11.948Z,98086.56
2023-04-26T07:05:40.103Z,98077.16
2023-04-26T07:08:07.259Z,98102.63
2023-04-26T07:10:34.423Z,98086.63
2023-04-26T07:13:01.560Z,98084.41
2023-04-26T07:15:28.879Z,98118.22
2023-04-26T07:17:55.831Z,98104.97
2023-04-26T07:20:23.170Z,98114.81
2023-04-26T07:22:51.124Z,98109.88
2023-04-26T07:25:18.347Z,98141.78
2023-04-26T07:27:45.268Z,98129.41
2023-04-26T07:30:12.332Z,98122.19
2023-04-26T07:32:39.337Z,98146.63
2023-04-26T07:35:07.232Z,98147.38
2023-04-26T07:37:34.220Z,98153.47
2023-04-26T07:40:01.037Z,98156.59
2023-04-26T07:42:27.962Z,98148.50
2023-04-26T07:44:55.035Z,98169.69
2023-04-26T07:47:22.458Z,98160.66
2023-04-26T07:49:53.652Z,98157.34
2023-04-26T07:52:20.846Z,98173.28
2023-04-26T07:54:47.760Z,98159.16
2023-04-26T07:57:14.742Z,98172.47
2023-04-26T07:59:41.740Z,98189.81
2023-04-26T08:02:08.680Z,98181.69
2023-04-26T08:04:35.839Z,98183.41
2023-04-26T08:07:03.067Z,98199.16
2023-04-26T08:09:30.496Z,98190.19
2023-04-26T08:11:57.840Z,98194.66
2023-04-26T08:14:24.992Z,98172.53
2023-04-26T08:16:52.173Z,98196.72
2023-04-26T08:19:19.201Z,98218.09
2023-04-26T08:21:46.268Z,98191.38
2023-04-26T08:24:13.275Z,98231.59
2023-04-26T08:26:40.328Z,98241.66
2023-04-26T08:29:07.184Z,98235.19
2023-04-26T08:31:34.205Z,98225.50
2023-04-26T08:34:01.273Z,98222.28
2023-04-26T08:36:28.409Z,98238.13
2023-04-26T08:38:55.237Z,98224.88
2023-04-26T08:41:23.313Z,98239.53
2023-04-26T08:43:51.549Z,98243.09
2023-04-26T08:46:20.207Z,98228.13
2023-04-26T08:48:57.106Z,98240.91
2023-04-26T08:51:25.007Z,98215.53
2023-04-26T08:53:55.033Z,98223.66
2023-04-26T08:56:25.552Z,98236.75
2023-04-26T08:58:53.700Z,98231.84
2023-04-26T09:01:22.291Z,98227.22
2023-04-26T09:03:49.371Z,98226.31
2023-04-26T09:06:20.060Z,98233.34
2023-04-26T09:08:47.799Z,98266.84
2023-04-26T09:11:14.661Z,98260.38
2023-04-26T09:13:41.592Z,98255.63
2023-04-26T09:16:08.976Z,98263.91
2023-04-26T09:18:46.834Z,98243.97
2023-04-26T09:21:16.090Z,98251.19
2023-04-26T09:24:00.173Z,98257.56
2023-04-26T09:26:27.341Z,98263.13
2023-04-26T09:29:18.479Z,98255.81
2023-04-26T09:31:49.811Z,98276.19
2023-04-26T09:34:17.239Z,98269.06
2023-04-26T09:36:54.347Z,98252.28
2023-04-26T09:39:33.192Z,98287.53
2023-04-26T09:42:00.605Z,98272.56
2023-04-26T09:44:29.877Z,98287.78
2023-04-26T09:47:10.539Z,98270.63
2023-04-26T09:49:52.065Z,98291.00
2023-04-26T09:52:20.316Z,98298.19
2023-04-26T09:54:51.453Z,98294.84
2023-04-26T09:57:22.453Z,98297.31
2023-04-26T09:59:53.537Z,98322.88
2023-04-26T10:02:28.655Z,98309.56
2023-04-26T10:04:57.273Z,98318.22
2023-04-26T10:07:25.948Z,98327.34
2023-04-26T10:09:53.894Z,98323.53
2023-04-26T10:12:21.046Z,98324.09
2023-04-26T10:14:49.128Z,98326.09
2023-04-26T10:17:18.874Z,98314.31
2023-04-26T10:19:52.227Z,98327.63
2023-04-26T10:22:24.943Z,98345.06
2023-04-26T10:24:54.461Z,98341.44
2023-04-26T10:27:49.962Z,98328.94
2023-04-26T10:30:21.647Z,98352.78
2023-04-26T10:32:57.859Z,98337.47
2023-04-26T10:35:29.385Z,98363.34
2023-04-26T10:38:02.629Z,98364.34
2023-04-26T10:40:38.230Z,98346.72
2023-04-26T10:43:11.314Z,98347.84
2023-04-26T10:45:39.918Z,98368.94
2023-04-26T10:48:28.520Z,98341.66
2023-04-26T10:51:02.204Z,98352.06
2023-04-26T10:53:53.951Z,98360.06
2023-04-26T10:56:24.286Z,98363.06
2023-04-26T10:59:33.373Z,98355.84
2023-04-26T11:02:01.357Z,98349.28
2023-04-26T11:04:54.012Z,98343.34
2023-04-26T11:07:37.900Z,98345.06
2023-04-26T11:10:08.910Z,98358.13
2023-04-26T11:12:35.911Z,98361.38
2023-04-26T11:15:02.774Z,98370.22
2023-04-26T11:17:37.519Z,98349.66
2023-04-26T11:20:16.444Z,98366.25
2023-04-26T11:22:43.402Z,98361.19
2023-04-26T11:25:13.902Z,98366.31
2023-04-26T11:27:43.528Z,98378.22
2023-04-26T11:30:11.395Z,98362.75
2023-04-26T11:32:38.547Z,98350.94
2023-04-26T11:35:05.828Z,98361.00
2023-04-26T11:37:34.344Z,98341.16
2023-04-26T11:40:01.213Z,98363.31
2023-04-26T11:42:28.225Z,98335.00
2023-04-26T11:44:57.257Z,98312.84
2023-04-26T11:47:24.842Z,98364.22
2023-04-26T11:49:52.112Z,98360.22
2023-04-26T11:52:19.069Z,98340.19
2023-04-26T11:54:45.910Z,98361.06
2023-04-26T11:57:17.901Z,98347.00
2023-04-26T11:59:45.442Z,98345.38
2023-04-26T12:02:12.609Z,98344.63
2023-04-26T12:04:40.927Z,98338.00
2023-04-26T12:07:08.293Z,98439.16
2023-04-26T12:09:35.498Z,98354.81
2023-04-26T12:12:04.121Z,98333.78
2023-04-26T12:14:36.067Z,98346.84
2023-04-26T12:17:04.672Z,98322.16
2023-04-26T12:19:34.889Z,98342.97
2023-04-26T12:22:01.992Z,98361.88
2023-04-26T12:24:31.147Z,98359.91
2023-04-26T12:26:59.127Z,98341.53
2023-04-26T12:29:27.283Z,98365.56
2023-04-26T12:31:54.518Z,98376.53
2023-04-26T12:34:21.655Z,98383.88
2023-04-26T12:36:48.553Z,98391.72
2023-04-26T12:39:15.461Z,98354.88
2023-04-26T12:41:43.270Z,98349.59
2023-04-26T12:44:11.181Z,98347.47
2023-04-26T12:46:38.729Z,98383.78
2023-04-26T12:49:05.688Z,98387.06
2023-04-26T12:51:32.689Z,98385.56
2023-04-26T12:53:59.551Z,98380.56
2023-04-26T12:56:26.622Z,98381.47
2023-04-26T12:58:53.665Z,98387.56
2023-04-26T13:01:20.738Z,98373.47
2023-04-26T13:03:47.720Z,98403.53
2023-04-26T13:06:14.924Z,98410.78
2023-04-26T13:08:41.884Z,98405.78
2023-04-26T13:11:08.866Z,98388.88
2023-04-26T13:13:43.079Z,98389.22
2023-04-26T13:16:12.989Z,98406.41
2023-04-26T13:18:40.582Z,98452.00
2023-04-26T13:21:07.752Z,98478.16
2023-04-26T13:23:34.831Z,98500.09
2023-04-26T13:26:01.855Z,98481.25
2023-04-26T13:28:28.694Z,98474.72
2023-04-26T13:30:55.772Z,98479.53
2023-04-26T13:33:23.094Z,98467.03
2023-04-26T13:35:50.097Z,98481.50
2023-04-26T13:38:17.615Z,98464.75
2023-04-26T13:40:44.929Z,98479.09
2023-04-26T13:43:11.937Z,98429.81
2023-04-26T13:45:38.979Z,98458.06
2023-04-26T13:48:06.017Z,98437.91
2023-04-26T13:50:33.092Z,98470.59
2023-04-26T13:53:00.286Z,98442.50
2023-04-26T13:55:27.469Z,98455.59
2023-04-26T13:57:54.350Z,98453.13
2023-04-26T14:00:21.799Z,98463.03
2023-04-26T14:02:49.776Z,98477.81
2023-04-26T14:05:17.171Z,98465.41
2023-04-26T14:07:44.255Z,98479.03
2023-04-26T14:10:12.004Z,98493.91
2023-04-26T14:12:39.100Z,98503.13
2023-04-26T14:15:06.810Z,98498.72
2023-04-26T14:17:33.901Z,98486.97
2023-04-26T14:20:00.968Z,98502.59
2023-04-26T14:22:28.227Z,98504.13
2023-04-26T14:24:55.209Z,98476.63
2023-04-26T14:27:22.144Z,98517.53
2023-04-26T14:29:49.084Z,98483.41
2023-04-26T14:32:16.036Z,98482.88
2023-04-26T14:34:43.153Z,98486.59
2023-04-26T14:37:10.117Z,98487.50
2023-04-26T14:39:37.086Z,98481.25
2023-04-26T14:42:04.243Z,98473.81
2023-04-26T14:44:31.354Z,98480.34
2023-04-26T14:46:58.327Z,98474.81
2023-04-26T14:49:25.309Z,98481.25
2023-04-26T14:51:53.605Z,98487.50
2023-04-26T14:54:21.355Z,98480.59
2023-04-26T14:56:49.017Z,98504.34
2023-04-26T14:59:16.250Z,98485.75
2023-04-26T15:01:43.286Z,98490.06
2023-04-26T15:04:10.651Z,98502.97
2023-04-26T15:06:37.772Z,98509.38
2023-04-26T15:09:04.719Z,98506.06
2023-04-26T15:11:31.769Z,98507.81
2023-04-26T15:13:59.329Z,98492.66
2023-04-26T15:16:26.882Z,98517.00
2023-04-26T15:18:53.871Z,98527.28
2023-04-26T15:21:34.205Z,98528.19
2023-04-26T15:24:01.246Z,98530.09
2023-04-26T15:26:31.968Z,98540.97
2023-04-26T15:29:01.473Z,98544.41
2023-04-26T15:31:31.668Z,98553.28
2023-04-26T15:33:58.680Z,98552.41
2023-04-26T15:36:25.518Z,98553.41
2023-04-26T15:38:52.427Z,98563.28
2023-04-26T15:41:19.281Z,98563.56
2023-04-26T15:43:46.265Z,98571.28
2023-04-26T15:46:14.062Z,98589.03
2023-04-26T15:48:40.982Z,98621.22
2023-04-26T15:51:07.887Z,98578.53
2023-04-26T15:53:35.557Z,98607.06
2023-04-26T15:56:03.421Z,98618.47
2023-04-26T15:58:30.336Z,98592.28
2023-04-26T16:00:57.235Z,98598.75
2023-04-26T16:03:24.604Z,98601.00
2023-04-26T16:05:51.776Z,98634.25
2023-04-26T16:08:27.920Z,98626.59
2023-04-26T16:11:06.090Z,98634.28
2023-04-26T16:13:33.076Z,98627.78
2023-04-26T16:16:00.210Z,98642.16
2023-04-26T16:18:27.326Z,98660.25
2023-04-26T16:21:03.602Z,98625.75
2023-04-26T16:23:30.562Z,98650.78
2023-04-26T16:25:57.590Z,98647.38
2023-04-26T16:28:24.544Z,98643.69
2023-04-26T16:30:51.377Z,98638.50
2023-04-26T16:33:19.783Z,98666.16
2023-04-26T16:35:52.948Z,98638.22
2023-04-26T16:38:20.071Z,98649.75
2023-04-26T16:40:57.023Z,98656.88
2023-04-26T16:43:25.987Z,98652.72
2023-04-26T16:46:03.153Z,98644.28
2023-04-26T16:48:34.777Z,98638.94
2023-04-26T16:51:04.136Z,98664.97
2023-04-26T16:53:33.982Z,98657.44
2023-04-26T16:56:00.862Z,98663.47
2023-04-26T16:58:27.873Z,98642.03
2023-04-26T17:00:54.941Z,98652.97
2023-04-26T17:03:22.848Z,98648.09
2023-04-26T17:05:50.166Z,98671.84
2023-04-26T17:08:18.233Z,98664.59
2023-04-26T17:10:46.886Z,98656.03
2023-04-26T17:13:17.859Z,98669.69
2023-04-26T17:15:45.143Z,98686.13
2023-04-26T17:18:12.085Z,98686.75
2023-04-26T17:20:39.323Z,98679.50
2023-04-26T17:23:06.321Z,98691.69
2023-04-26T17:25:33.234Z,98670.50
2023-04-26T17:28:00.182Z,98679.28
2023-04-26T17:30:27.519Z,98700.50
2023-04-26T17:32:54.589Z,98691.69
2023-04-26T17:35:21.662Z,98702.09
2023-04-26T17:37:48.798Z,98691.72
2023-04-26T17:40:16.494Z,98707.34
2023-04-26T17:42:45.733Z,98705.00
2023-04-26T17:45:15.100Z,98691.50
2023-04-26T17:47:47.460Z,98684.56
2023-04-26T17:50:14.414Z,98696.16
2023-04-26T17:52:41.474Z,98705.72
2023-04-26T17:55:09.135Z,98710.44
2023-04-26T17:57:37.102Z,98708.03
2023-04-26T18:00:06.026Z,98723.38
2023-04-26T18:02:35.399Z,98721.31
2023-04-26T18:05:03.168Z,98743.88
2023-04-26T18:07:30.266Z,98719.72
2023-04-26T18:09:57.251Z,98714.22
2023-04-26T18:12:27.954Z,98719.31
2023-04-26T18:14:55.203Z,98723.13
2023-04-26T18:17:25.082Z,98738.59
2023-04-26T18:19:52.830Z,98733.66
2023-04-26T18:22:19.664Z,98716.78
2023-04-26T18:24:46.926Z,98728.66
2023-04-26T18:27:13.761Z,98737.97
2023-04-26T18:29:40.696Z,98747.41
2023-04-26T18:32:10.065Z,98729.28
2023-04-26T18:34:39.973Z,98717.75
2023-04-26T18:37:07.404Z,98745.81
2023-04-26T18:39:34.381Z,98729.59
2023-04-26T18:42:05.601Z,98725.34
2023-04-26T18:44:32.718Z,98740.94
2023-04-26T18:46:59.775Z,98741.25
2023-04-26T18:49:29.881Z,98748.97
2023-04-26T18:51:57.003Z,98736.47
2023-04-26T18:54:23.979Z,98735.13
2023-04-26T18:56:53.498Z,98742.56
2023-04-26T18:59:24.197Z,98762.72
2023-04-26T19:01:51.407Z,98748.91
2023-04-26T19:04:18.540Z,98731.31
2023-04-26T19:06:53.514Z,98748.69
2023-04-26T19:09:23.483Z,98750.44
2023-04-26T19:11:50.656Z,98758.22
2023-04-26T19:14:18.589Z,98743.41
2023-04-26T19:16:45.564Z,98751.41
2023-04-26T19:19:12.736Z,98749.03
2023-04-26T19:21:40.291Z,98748.88
2023-04-26T19:24:07.674Z,98764.91
2023-04-26T19:26:34.635Z,98759.31
2023-04-26T19:29:06.679Z,98776.50
2023-04-26T19:31:34.151Z,98736.09
2023-04-26T19:34:01.068Z,98742.47
2023-04-26T19:36:28.404Z,98766.59
2023-04-26T19:38:57.636Z,98755.44
2023-04-26T19:41:24.515Z,98771.97
2023-04-26T19:43:51.359Z,98753.13
2023-04-26T19:46:18.366Z,98761.13
2023-04-26T19:48:45.787Z,98773.63
2023-04-26T19:51:17.124Z,98738.19
2023-04-26T19:53:44.879Z,98782.06
2023-04-26T19:56:11.768Z,98753.97
2023-04-26T19:58:39.156Z,98761.75
2023-04-26T20:01:06.509Z,98746.03
2023-04-26T20:03:33.806Z,98756.28
2023-04-26T20:06:02.177Z,98788.19
2023-04-26T20:08:31.559Z,98775.94
2023-04-26T20:11:02.728Z,98765.28
2023-04-26T20:13:31.139Z,98765.94
2023-04-26T20:15:58.497Z,98774.53
2023-04-26T20:18:25.911Z,98780.47
2023-04-26T20:20:52.894Z,98760.50
2023-04-26T20:23:19.964Z,98780.41
2023-04-26T20:25:46.918Z,98791.28
2023-04-26T20:28:14.129Z,98798.56
2023-04-26T20:30:41.669Z,98788.31
2023-04-26T20:33:09.042Z,98772.53
2023-04-26T20:35:36.030Z,98768.41
2023-04-26T20:38:04.476Z,98761.09
2023-04-26T20:40:31.376Z,98785.63
2023-04-26T20:42:58.419Z,98773.34
2023-04-26T20:45:25.302Z,98780.25
2023-04-26T20:47:52.457Z,98776.06
2023-04-26T20:50:19.605Z,98783.84
2023-04-26T20:52:46.628Z,98777.38
2023-04-26T20:55:13.693Z,98785.75
2023-04-26T20:57:40.574Z,98804.25
2023-04-26T21:00:08.802Z,98764.22
2023-04-26T21:02:36.529Z,98778.78
2023-04-26T21:05:04.461Z,98792.47
2023-04-26T21:07:32.297Z,98769.28
2023-04-26T21:09:59.606Z,98795.59
2023-04-26T21:12:26.642Z,98806.94
2023-04-26T21:14:53.489Z,98813.38
2023-04-26T21:17:20.600Z,98812.44
2023-04-26T21:19:47.453Z,98802.78
2023-04-26T21:22:14.640Z,98824.38
2023-04-26T21:24:41.559Z,98826.88
2023-04-26T21:27:08.729Z,98807.16
2023-04-26T21:29:35.630Z,98814.97
2023-04-26T21:32:02.584Z,98811.28
2023-04-26T21:34:29.492Z,98813.59
2023-04-26T21:36:56.397Z,98809.75
2023-04-26T21:39:23.236Z,98790.56
2023-04-26T21:41:50.317Z,98817.41
2023-04-26T21:44:17.185Z,98817.41
2023-04-26T21:46:44.152Z,98802.97
2023-04-26T21:49:11.322Z,98808.47
2023-04-26T21:51:38.601Z,98815.91
2023-04-26T21:54:05.676Z,98810.97
2023-04-26T21:56:32.560Z,98796.44
2023-04-26T21:58:59.445Z,98807.94
2023-04-26T22:01:26.530Z,98836.38
2023-04-26T22:03:53.549Z,98798.72
2023-04-26T22:06:20.522Z,98837.03
2023-04-26T22:08:47.383Z,98786.50
2023-04-26T22:11:14.607Z,98827.53
2023-04-26T22:13:41.435Z,98820.19
2023-04-26T22:16:08.501Z,98801.59
2023-04-26T22:18:35.440Z,98822.53
2023-04-26T22:21:02.428Z,98834.50
2023-04-26T22:23:29.349Z,98843.97
2023-04-26T22:25:56.301Z,98818.47
2023-04-26T22:28:23.110Z,98814.25
2023-04-26T22:30:50.063Z,98808.81
2023-04-26T22:33:16.915Z,98830.81
2023-04-26T22:35:44.963Z,98805.06
2023-04-26T22:38:11.805Z,98836.53
2023-04-26T22:40:38.782Z,98823.00
2023-04-26T22:43:05.609Z,98809.31
2023-04-26T22:45:32.544Z,98823.66
2023-04-26T22:47:59.486Z,98812.22
2023-04-26T22:50:26.535Z,98810.13
2023-04-26T22:52:53.438Z,98835.50
2023-04-26T22:55:20.440Z,98841.75
2023-04-26T22:57:47.594Z,98834.09
2023-04-26T23:00:15.106Z,98832.88
2023-04-26T23:02:42.481Z,98833.53
2023-04-26T23:05:10.332Z,98838.81
2023-04-26T23:07:38.581Z,98831.94
2023-04-26T23:10:06.492Z,98824.94
2023-04-26T23:12:33.486Z,98830.56
2023-04-26T23:15:00.494Z,98836.41
2023-04-26T23:17:27.963Z,98838.59
2023-04-26T23:19:55.172Z,98832.94
2023-04-26T23:22:22.160Z,98832.19
2023-04-26T23:24:49.049Z,98833.66
2023-04-26T23:27:15.988Z,98842.66
2023-04-26T23:29:43.169Z,98844.56
2023-04-26T23:32:10.062Z,98834.34
2023-04-26T23:34:37.008Z,98826.44
2023-04-26T23:37:07.911Z,98848.63
2023-04-26T23:39:35.721Z,98844.09
2023-04-26T23:42:02.658Z,98847.94
2023-04-26T23:44:29.669Z,98843.06
2023-04-26T23:46:56.596Z,98864.19
2023-04-26T23:49:23.561Z,98856.25
2023-04-26T23:51:50.514Z,98861.50
2023-04-26T23:54:17.484Z,98841.53
2023-04-26T23:56:44.367Z,98825.81
2023-04-26T23:59:11.575Z,98847.19
